Time;durP1;ratioP1;P1;durP2;ratioP2;P2;SDS_P1;SDS_P2;PMS_P1;PMS_P2;Temp;Humidity;BMP_temperature;BMP_pressure;BME280_temperature;BME280_humidity;BME280_pressure;Samples;Min_cycle;Max_cycle;Signal;HPM_P1;HPM_P2
2021/12/08 00:01:12;;;;;;;6.60;5.10;;;5.30;99.90;;;;;;6213517;23;20023;-68
2021/12/08 00:03:39;;;;;;;7.00;5.43;;;5.00;99.90;;;;;;6186497;23;20099;-68
2021/12/08 00:06:08;;;;;;;8.30;5.78;;;5.00;99.90;;;;;;6213149;23;20088;-69
2021/12/08 00:08:36;;;;;;;6.97;5.70;;;5.10;99.90;;;;;;6186458;23;20514;-69
2021/12/08 00:13:51;;;;;;;12.90;6.05;;;5.10;99.90;;;;;;6213291;23;20490;-70
2021/12/08 00:16:19;;;;;;;6.43;5.40;;;5.00;99.90;;;;;;6212855;23;20762;-70
2021/12/08 00:18:48;;;;;;;8.25;5.63;;;5.00;99.90;;;;;;6162568;23;20023;-70
2021/12/08 00:21:17;;;;;;;7.63;5.75;;;5.10;99.90;;;;;;6187060;23;20366;-68
2021/12/08 00:23:45;;;;;;;5.90;5.30;;;5.00;99.90;;;;;;6186993;23;20307;-68
2021/12/08 00:26:12;;;;;;;6.28;5.68;;;4.70;99.90;;;;;;6186763;23;20103;-70
2021/12/08 00:28:40;;;;;;;6.68;5.57;;;4.80;99.90;;;;;;6213308;23;20308;-67
2021/12/08 00:31:07;;;;;;;7.65;5.88;;;4.80;99.90;;;;;;6213211;23;20080;-66
2021/12/08 00:33:36;;;;;;;6.28;5.45;;;4.90;99.90;;;;;;6213647;23;20016;-68
2021/12/08 00:36:12;;;;;;;5.93;5.35;;;4.90;99.90;;;;;;6215090;23;20015;-68
2021/12/08 00:38:39;;;;;;;7.03;5.72;;;5.00;99.90;;;;;;6163973;23;20039;-69
2021/12/08 00:41:07;;;;;;;7.15;5.60;;;5.10;99.90;;;;;;6215125;23;20088;-69
2021/12/08 00:43:35;;;;;;;6.13;5.43;;;5.00;99.90;;;;;;6215058;23;20490;-68
2021/12/08 00:46:03;;;;;;;6.10;5.50;;;5.20;99.90;;;;;;6215111;23;20022;-69
2021/12/08 00:48:31;;;;;;;6.75;5.95;;;5.10;99.90;;;;;;6188542;23;20016;-69
2021/12/08 00:50:58;;;;;;;6.18;5.03;;;4.90;99.90;;;;;;6188569;23;20013;-69
2021/12/08 00:53:25;;;;;;;6.53;5.47;;;5.00;99.90;;;;;;6188486;23;20070;-66
2021/12/08 00:55:53;;;;;;;6.53;5.18;;;5.00;99.90;;;;;;6188135;23;20019;-72
2021/12/08 00:58:20;;;;;;;7.00;5.47;;;5.10;99.90;;;;;;6214612;23;20088;-66
2021/12/08 01:00:51;;;;;;;6.65;5.60;;;5.00;99.90;;;;;;6188529;23;20012;-69
2021/12/08 01:03:19;;;;;;;7.38;5.88;;;5.10;99.90;;;;;;6214675;23;20008;-68
2021/12/08 01:05:54;;;;;;;5.72;5.10;;;5.00;99.90;;;;;;6188202;23;20020;-69
2021/12/08 01:08:24;;;;;;;7.47;5.75;;;4.90;99.90;;;;;;6187421;23;20100;-69
2021/12/08 01:10:55;;;;;;;7.63;6.07;;;5.00;99.90;;;;;;6215113;23;20084;-65
2021/12/08 01:13:23;;;;;;;;;;;4.90;99.90;;;;;;6188865;23;20009;-68
2021/12/08 01:15:52;;;;;;;6.00;5.40;;;4.90;99.90;;;;;;6187961;23;20306;-68
2021/12/08 01:18:21;;;;;;;6.07;5.18;;;4.80;99.90;;;;;;6187046;23;20028;-67
2021/12/08 01:20:51;;;;;;;6.78;5.72;;;4.90;99.90;;;;;;6161949;23;20044;-67
2021/12/08 01:23:19;;;;;;;6.47;5.78;;;5.00;99.90;;;;;;6186371;23;20017;-67
2021/12/08 01:25:48;;;;;;;7.47;5.28;;;4.80;99.90;;;;;;6214152;23;20095;-67
2021/12/08 01:28:21;;;;;;;14.55;6.10;;;4.70;99.90;;;;;;6214466;23;20013;-67
2021/12/08 01:30:50;;;;;;;7.57;5.80;;;4.90;99.90;;;;;;6214787;23;20018;-68
2021/12/08 01:33:20;;;;;;;9.20;6.15;;;4.90;99.90;;;;;;6214620;23;20317;-67
2021/12/08 01:35:47;;;;;;;6.03;5.20;;;5.10;99.90;;;;;;6215051;23;20040;-67
2021/12/08 01:38:14;;;;;;;8.65;5.65;;;5.00;99.90;;;;;;6214461;23;20013;-66
2021/12/08 01:40:42;;;;;;;6.38;5.72;;;5.00;99.90;;;;;;6214764;23;20079;-68
2021/12/08 01:43:24;;;;;;;7.25;6.15;;;5.20;99.90;;;;;;6214086;23;20022;-67
2021/12/08 01:46:02;;;;;;;7.00;5.80;;;5.30;99.90;;;;;;6214607;23;20013;-69
2021/12/08 01:48:34;;;;;;;6.57;5.78;;;5.00;99.90;;;;;;6214462;23;20008;-68
2021/12/08 01:51:11;;;;;;;6.78;5.50;;;4.90;99.90;;;;;;6214395;23;20017;-68
2021/12/08 01:53:41;;;;;;;7.55;5.80;;;4.90;99.90;;;;;;6214409;23;20012;-73
2021/12/08 01:56:09;;;;;;;8.88;6.05;;;4.90;99.90;;;;;;6214751;23;20016;-73
2021/12/08 01:58:37;;;;;;;7.40;5.82;;;4.80;99.90;;;;;;6188199;23;20036;-68
2021/12/08 02:01:07;;;;;;;8.25;5.82;;;4.80;99.90;;;;;;6214414;23;20059;-66
2021/12/08 02:03:36;;;;;;;8.13;6.05;;;5.00;99.90;;;;;;6214487;23;20083;-71
2021/12/08 02:06:08;;;;;;;7.28;5.93;;;4.90;99.90;;;;;;6188466;23;20020;-67
2021/12/08 02:08:36;;;;;;;;;;;5.00;99.90;;;;;;6214303;23;20464;-66
2021/12/08 02:11:05;;;;;;;6.78;5.70;;;4.90;99.90;;;;;;6214393;23;19979;-68
2021/12/08 02:13:39;;;;;;;6.50;5.53;;;4.80;99.90;;;;;;6214357;23;20008;-69
2021/12/08 02:16:11;;;;;;;7.00;5.70;;;4.80;99.90;;;;;;6214434;23;20083;-69
2021/12/08 02:18:39;;;;;;;6.30;5.70;;;4.70;99.90;;;;;;6213914;23;20357;-71
2021/12/08 02:21:32;;;;;;;7.57;5.65;;;4.70;99.90;;;;;;6214408;23;20080;-67
2021/12/08 02:24:03;;;;;;;6.05;5.07;;;4.70;99.90;;;;;;6214439;23;20016;-68
2021/12/08 02:26:31;;;;;;;6.93;5.72;;;4.70;99.90;;;;;;6213620;23;20012;-67
2021/12/08 02:29:05;;;;;;;7.65;5.93;;;4.70;99.90;;;;;;6214024;23;20012;-68
2021/12/08 02:31:48;;;;;;;7.72;6.20;;;4.70;99.90;;;;;;6214268;23;20311;-68
2021/12/08 02:48:07;;;;;;;8.23;6.45;;;4.70;99.90;;;;;;6213508;23;20022;-67
2021/12/08 02:50:38;;;;;;;7.68;6.45;;;4.60;99.90;;;;;;6214127;23;20016;-68
2021/12/08 02:53:07;;;;;;;8.18;6.40;;;4.60;99.90;;;;;;6213589;23;20032;-67
2021/12/08 02:55:36;;;;;;;8.35;5.82;;;4.70;99.90;;;;;;6214813;23;20095;-67
2021/12/08 02:58:05;;;;;;;7.07;6.18;;;4.70;99.90;;;;;;6213689;23;20013;-68
2021/12/08 03:00:37;;;;;;;8.52;6.28;;;4.60;99.90;;;;;;6213949;23;20080;-68
2021/12/08 03:03:06;;;;;;;6.88;6.15;;;4.60;99.90;;;;;;6213808;23;20063;-68
2021/12/08 03:05:33;;;;;;;7.40;6.22;;;4.60;99.90;;;;;;6213997;23;20023;-69
2021/12/08 03:08:03;;;;;;;9.20;6.50;;;4.60;99.90;;;;;;6213705;23;20008;-70
2021/12/08 03:10:35;;;;;;;7.13;5.82;;;4.70;99.90;;;;;;6213546;23;20017;-68
2021/12/08 03:13:03;;;;;;;8.20;6.05;;;4.70;99.90;;;;;;6213909;23;20015;-66
2021/12/08 03:15:30;;;;;;;6.72;5.78;;;4.60;99.90;;;;;;6213943;23;20016;-70
2021/12/08 03:17:58;;;;;;;7.25;5.80;;;4.60;99.90;;;;;;6213740;23;20017;-64
2021/12/08 03:20:40;;;;;;;7.40;5.70;;;4.60;99.90;;;;;;6213927;23;20015;-65
2021/12/08 03:23:11;;;;;;;6.55;5.80;;;4.60;99.90;;;;;;6213434;23;20087;-69
2021/12/08 03:25:42;;;;;;;6.82;5.60;;;4.60;99.90;;;;;;6214478;23;20076;-67
2021/12/08 03:28:34;;;;;;;6.50;5.70;;;4.70;99.90;;;;;;6213669;23;20365;-68
2021/12/08 03:31:09;;;;;;;7.63;5.95;;;4.70;99.90;;;;;;6213663;23;20016;-66
2021/12/08 03:33:37;;;;;;;7.95;6.22;;;4.60;99.90;;;;;;6213465;23;20039;-69
2021/12/08 03:36:06;;;;;;;7.13;6.10;;;4.70;99.90;;;;;;6187653;23;20374;-67
2021/12/08 03:38:34;;;;;;;7.35;5.85;;;4.60;99.90;;;;;;6213501;23;20299;-71
2021/12/08 03:41:03;;;;;;;8.38;6.07;;;4.60;99.90;;;;;;6213680;23;20468;-66
2021/12/08 03:43:31;;;;;;;7.82;5.97;;;4.50;99.90;;;;;;6213394;23;20036;-67
2021/12/08 03:46:00;;;;;;;7.05;6.30;;;4.60;99.90;;;;;;6213675;23;20036;-66
2021/12/08 03:48:39;;;;;;;6.28;5.50;;;4.50;99.90;;;;;;6213549;23;20032;-68
2021/12/08 03:51:06;;;;;;;9.07;6.30;;;4.50;99.90;;;;;;6186936;23;20115;-67
2021/12/08 03:53:34;;;;;;;9.07;6.28;;;4.60;99.90;;;;;;6213367;23;20370;-66
2021/12/08 03:56:02;;;;;;;7.88;5.50;;;4.60;99.90;;;;;;6213538;23;20013;-69
2021/12/08 03:58:29;;;;;;;6.63;5.57;;;4.50;99.90;;;;;;6213596;23;20083;-69
2021/12/08 04:00:59;;;;;;;7.75;6.22;;;4.60;99.90;;;;;;6213627;23;20028;-69
2021/12/08 04:03:30;;;;;;;6.18;5.57;;;4.70;99.90;;;;;;6213202;23;20092;-69
2021/12/08 04:06:03;;;;;;;7.90;5.90;;;4.80;99.90;;;;;;6213528;23;20020;-69
2021/12/08 04:08:43;;;;;;;7.43;5.70;;;5.00;99.90;;;;;;6213541;23;20318;-69
2021/12/08 04:11:12;;;;;;;6.32;5.72;;;5.00;99.90;;;;;;6215023;23;20015;-67
2021/12/08 04:13:49;;;;;;;7.20;6.30;;;4.80;99.90;;;;;;6215699;23;20023;-68
2021/12/08 04:16:22;;;;;;;5.95;5.28;;;4.80;99.90;;;;;;6215196;23;20066;-68
2021/12/08 04:18:50;;;;;;;7.15;5.20;;;4.90;99.90;;;;;;6215655;23;20087;-69
2021/12/08 04:21:19;;;;;;;6.72;5.88;;;4.80;99.90;;;;;;6215269;23;20032;-68
2021/12/08 04:23:46;;;;;;;7.07;5.90;;;5.00;99.90;;;;;;6215303;23;20425;-69
2021/12/08 04:26:20;;;;;;;6.68;5.72;;;5.00;99.90;;;;;;6215263;23;20393;-67
2021/12/08 04:28:47;;;;;;;8.35;5.50;;;5.10;99.90;;;;;;6215398;23;20371;-69
2021/12/08 04:31:18;;;;;;;6.40;4.90;;;5.00;99.90;;;;;;6214602;23;20091;-67
2021/12/08 04:33:52;;;;;;;6.35;5.40;;;4.90;99.90;;;;;;6215694;23;20377;-70
2021/12/08 04:36:21;;;;;;;7.28;5.93;;;5.00;99.90;;;;;;6215131;23;20012;-67
2021/12/08 04:38:53;;;;;;;6.60;5.80;;;5.10;99.90;;;;;;6215493;23;20036;-69
2021/12/08 04:41:30;;;;;;;8.13;6.13;;;5.20;99.90;;;;;;6215071;23;20087;-66
2021/12/08 04:44:25;;;;;;;8.57;5.50;;;5.20;99.90;;;;;;6189043;23;20071;-67
2021/12/08 04:47:19;;;;;;;6.25;5.25;;;5.30;99.90;;;;;;6214804;23;20017;-71
2021/12/08 04:53:05;;;;;;;7.23;5.53;;;5.20;99.90;;;;;;6215208;23;20084;-67
2021/12/08 05:01:22;;;;;;;7.20;5.32;;;5.00;99.90;;;;;;6214875;23;20365;-67
2021/12/08 05:04:24;;;;;;;6.82;5.45;;;5.10;99.90;;;;;;6215164;23;20020;-67
2021/12/08 05:07:14;;;;;;;6.05;5.32;;;5.20;99.90;;;;;;6214725;23;20020;-65
2021/12/08 05:09:43;;;;;;;7.35;5.35;;;5.20;99.40;;;;;;6214579;23;20092;-67
2021/12/08 05:12:18;;;;;;;6.13;5.05;;;5.40;99.30;;;;;;6214749;23;20036;-68
2021/12/08 05:15:05;;;;;;;5.35;4.85;;;5.40;98.40;;;;;;6214898;23;20012;-70
2021/12/08 05:17:42;;;;;;;5.50;4.95;;;5.50;97.70;;;;;;6214757;23;20109;-71
2021/12/08 05:20:37;;;;;;;5.85;4.80;;;5.30;97.70;;;;;;6214671;23;20012;-68
2021/12/08 05:23:23;;;;;;;5.43;4.88;;;5.30;97.60;;;;;;6210358;23;20096;-68
2021/12/08 05:25:52;;;;;;;5.65;4.78;;;5.50;98.20;;;;;;6214756;23;20089;-64
2021/12/08 05:28:22;;;;;;;6.53;5.05;;;5.50;97.70;;;;;;6214743;23;20048;-71
2021/12/08 05:30:55;;;;;;;;;;;5.50;97.60;;;;;;6215224;23;20023;-65
2021/12/08 05:33:24;;;;;;;5.70;5.10;;;5.30;97.50;;;;;;6214419;23;19936;-70
2021/12/08 05:35:52;;;;;;;7.20;5.32;;;5.30;98.20;;;;;;6214786;23;20087;-66
2021/12/08 05:38:20;;;;;;;7.13;5.88;;;4.90;99.60;;;;;;6214765;23;20040;-67
2021/12/08 05:41:06;;;;;;;7.50;5.35;;;4.80;99.90;;;;;;6214701;23;20036;-69
2021/12/08 05:43:34;;;;;;;6.53;5.45;;;4.70;99.90;;;;;;6214718;23;20032;-70
2021/12/08 05:46:03;;;;;;;6.30;5.20;;;4.70;99.90;;;;;;6214273;23;20012;-71
2021/12/08 05:48:32;;;;;;;7.22;5.32;;;4.70;99.90;;;;;;6214788;23;20012;-67
2021/12/08 05:51:10;;;;;;;6.40;5.38;;;4.80;99.90;;;;;;6214538;23;20012;-68
2021/12/08 05:53:41;;;;;;;7.35;5.95;;;4.90;99.90;;;;;;6188490;23;20080;-67
2021/12/08 05:56:09;;;;;;;6.90;5.97;;;5.00;99.90;;;;;;6214069;23;20329;-67
2021/12/08 05:58:38;;;;;;;7.40;5.22;;;4.80;99.90;;;;;;6214551;23;20012;-66
2021/12/08 06:01:11;;;;;;;5.80;4.95;;;4.90;99.60;;;;;;6214360;23;20027;-69
2021/12/08 06:03:41;;;;;;;5.90;5.28;;;4.80;99.50;;;;;;6214337;23;20333;-67
2021/12/08 06:06:10;;;;;;;8.15;5.45;;;4.90;99.90;;;;;;6214489;23;20016;-66
2021/12/08 06:08:39;;;;;;;7.63;5.03;;;5.00;99.50;;;;;;6214121;23;20016;-69
2021/12/08 06:11:09;;;;;;;6.10;5.50;;;5.00;99.10;;;;;;6214209;23;20087;-65
2021/12/08 06:13:39;;;;;;;5.68;5.03;;;4.80;99.70;;;;;;6214388;23;20047;-68
2021/12/08 06:16:08;;;;;;;6.35;5.22;;;4.80;99.90;;;;;;6214248;23;20083;-70
2021/12/08 06:18:39;;;;;;;7.38;5.15;;;4.70;99.90;;;;;;6214388;23;20013;-68
2021/12/08 06:21:09;;;;;;;;;;;4.80;99.90;;;;;;6214832;23;20087;-69
2021/12/08 06:23:38;;;;;;;6.30;4.78;;;4.80;99.50;;;;;;6213998;23;19986;-67
2021/12/08 06:26:06;;;;;;;6.50;5.35;;;4.90;99.90;;;;;;6187209;23;20036;-66
2021/12/08 06:28:34;;;;;;;6.45;5.80;;;4.90;99.70;;;;;;6214065;23;20040;-68
2021/12/08 06:31:04;;;;;;;7.68;5.15;;;4.80;99.90;;;;;;6213550;23;20016;-65
2021/12/08 06:33:33;;;;;;;6.75;5.70;;;4.70;99.90;;;;;;6187291;23;20088;-66
2021/12/08 06:36:09;;;;;;;7.47;5.60;;;4.70;99.90;;;;;;6214089;23;20067;-69
2021/12/08 06:38:37;;;;;;;7.28;5.43;;;4.70;99.90;;;;;;6213703;23;20016;-71
2021/12/08 06:41:12;;;;;;;8.13;5.72;;;4.60;99.90;;;;;;6213968;23;20023;-67
2021/12/08 06:43:42;;;;;;;9.02;5.45;;;4.50;99.90;;;;;;6213605;23;20043;-72
2021/12/08 06:46:13;;;;;;;7.15;5.90;;;4.40;99.90;;;;;;6213902;23;20020;-68
2021/12/08 06:48:48;;;;;;;7.30;5.57;;;4.40;99.90;;;;;;6214377;23;20088;-68
2021/12/08 06:51:24;;;;;;;7.00;5.30;;;4.40;99.90;;;;;;6213563;23;20013;-68
2021/12/08 06:54:01;;;;;;;6.93;5.97;;;4.60;99.90;;;;;;6214045;23;20009;-68
2021/12/08 06:56:42;;;;;;;7.03;5.90;;;4.60;99.90;;;;;;6213566;23;20092;-69
2021/12/08 06:59:12;;;;;;;8.35;5.70;;;4.50;99.90;;;;;;6214178;23;20080;-67
2021/12/08 07:01:54;;;;;;;7.85;6.20;;;4.40;99.90;;;;;;6213395;23;20086;-68
2021/12/08 07:05:10;;;;;;;6.82;5.72;;;4.50;99.90;;;;;;6214003;23;20016;-70
2021/12/08 07:07:41;;;;;;;6.43;5.68;;;4.50;99.90;;;;;;6213876;23;20015;-68
2021/12/08 07:10:24;;;;;;;6.95;5.57;;;4.40;99.90;;;;;;6213143;23;20016;-69
2021/12/08 07:12:56;;;;;;;10.32;5.35;;;4.50;99.90;;;;;;6213796;23;20453;-68
2021/12/08 07:15:39;;;;;;;6.90;5.88;;;4.50;99.90;;;;;;6213711;23;20020;-72
2021/12/08 07:18:11;;;;;;;6.80;5.72;;;4.60;99.90;;;;;;6186580;23;20033;-67
2021/12/08 07:20:47;;;;;;;6.70;6.00;;;4.60;99.90;;;;;;6213636;23;20020;-72
2021/12/08 07:23:25;;;;;;;6.13;5.43;;;4.70;99.90;;;;;;6213282;23;20032;-67
2021/12/08 07:25:55;;;;;;;5.70;5.10;;;4.90;99.90;;;;;;6213383;23;20038;-67
2021/12/08 07:28:25;;;;;;;6.80;5.43;;;5.00;99.50;;;;;;6213227;23;20039;-68
2021/12/08 07:31:05;;;;;;;7.07;5.20;;;5.10;99.20;;;;;;6213739;23;20108;-66
2021/12/08 07:33:33;;;;;;;6.18;5.53;;;5.30;99.10;;;;;;6213462;23;20019;-71
2021/12/08 07:36:04;;;;;;;6.60;5.43;;;5.30;98.30;;;;;;6213673;23;20016;-65
2021/12/08 07:38:32;;;;;;;5.63;5.03;;;5.20;98.10;;;;;;6213302;23;20009;-68
2021/12/08 07:41:19;;;;;;;6.45;5.13;;;5.30;97.60;;;;;;6213360;23;20295;-69
2021/12/08 07:43:51;;;;;;;5.45;4.95;;;5.30;98.10;;;;;;6213120;23;20017;-66
2021/12/08 07:46:35;;;;;;;6.05;5.20;;;5.50;98.00;;;;;;6213172;23;20008;-68
2021/12/08 07:49:08;;;;;;;7.05;5.18;;;5.50;97.60;;;;;;6213126;23;20083;-72
2021/12/08 07:51:43;;;;;;;5.88;4.85;;;5.60;96.90;;;;;;6186691;23;20509;-67
2021/12/08 07:54:11;;;;;;;6.57;4.85;;;5.40;97.00;;;;;;6213160;23;20028;-67
2021/12/08 07:56:43;;;;;;;6.30;5.43;;;5.40;97.00;;;;;;6187208;23;20020;-67
2021/12/08 07:59:13;;;;;;;5.85;4.95;;;5.40;97.40;;;;;;6213526;23;20032;-69
2021/12/08 08:01:45;;;;;;;6.70;5.10;;;5.50;97.30;;;;;;6213268;23;20080;-69
2021/12/08 08:04:16;;;;;;;6.32;5.07;;;5.60;97.00;;;;;;6213636;23;20083;-67
2021/12/08 08:06:49;;;;;;;7.18;5.32;;;5.60;97.00;;;;;;6213079;23;20032;-68
2021/12/08 08:09:40;;;;;;;6.15;5.30;;;5.60;97.20;;;;;;6213172;23;20040;-68
2021/12/08 08:12:16;;;;;;;6.03;5.18;;;5.70;97.20;;;;;;6213234;23;20591;-72
2021/12/08 08:14:51;;;;;;;6.15;5.47;;;5.80;96.80;;;;;;6213731;23;20080;-68
2021/12/08 08:17:29;;;;;;;6.13;5.32;;;5.80;97.10;;;;;;6213070;23;20091;-69
2021/12/08 08:19:58;;;;;;;6.78;5.43;;;5.70;97.10;;;;;;6213688;23;20004;-69
2021/12/08 08:22:29;;;;;;;6.65;5.60;;;5.90;97.00;;;;;;6213321;23;20084;-72
2021/12/08 08:25:00;;;;;;;7.95;5.80;;;6.00;96.50;;;;;;6213808;23;20092;-74
2021/12/08 08:27:28;;;;;;;11.23;7.22;;;5.90;96.30;;;;;;6212945;23;20040;-68
2021/12/08 08:29:57;;;;;;;6.53;5.40;;;6.10;96.40;;;;;;6213266;23;20296;-68
2021/12/08 08:32:32;;;;;;;6.43;4.97;;;6.10;95.60;;;;;;6213226;23;20373;-70
2021/12/08 08:35:13;;;;;;;6.13;5.53;;;6.20;95.40;;;;;;6213131;23;20084;-70
2021/12/08 08:37:42;;;;;;;7.72;5.20;;;6.30;95.30;;;;;;6212689;23;20035;-69
2021/12/08 08:40:19;;;;;;;6.38;5.18;;;6.30;94.90;;;;;;6213622;23;20032;-67
2021/12/08 08:42:51;;;;;;;6.68;5.30;;;6.50;94.30;;;;;;6212907;23;20081;-66
2021/12/08 08:45:39;;;;;;;6.97;4.97;;;6.60;93.80;;;;;;6212966;23;20067;-73
2021/12/08 08:48:14;;;;;;;6.47;4.88;;;6.70;93.00;;;;;;6213058;23;20027;-66
2021/12/08 08:50:50;;;;;;;;;;;6.50;92.30;;;;;;6213853;23;20016;-65
2021/12/08 08:53:22;;;;;;;7.15;5.60;;;6.60;92.90;;;;;;6212511;23;19966;-65
2021/12/08 08:55:58;;;;;;;7.35;5.03;;;6.90;93.30;;;;;;6212783;23;20021;-70
2021/12/08 08:58:29;;;;;;;6.18;5.03;;;7.40;92.40;;;;;;6214654;23;20013;-66
2021/12/08 09:01:15;;;;;;;6.85;5.40;;;7.60;91.90;;;;;;6214853;23;20063;-68
2021/12/08 09:03:49;;;;;;;6.40;5.13;;;7.30;91.60;;;;;;6214795;23;20333;-66
2021/12/08 09:06:22;;;;;;;5.10;4.60;;;7.70;91.30;;;;;;6187423;23;20024;-67
2021/12/08 09:08:49;;;;;;;5.95;5.10;;;7.20;90.90;;;;;;6214041;23;20072;-70
2021/12/08 09:11:22;;;;;;;8.85;4.95;;;7.40;91.80;;;;;;6214579;23;20027;-67
2021/12/08 09:14:31;;;;;;;8.23;5.40;;;7.90;90.60;;;;;;6214788;23;20071;-72
2021/12/08 09:17:37;;;;;;;6.97;5.40;;;8.10;90.00;;;;;;6209640;23;20051;-74
2021/12/08 09:20:23;;;;;;;7.20;5.50;;;8.00;88.90;;;;;;6190371;23;20071;-66
2021/12/08 09:23:00;;;;;;;7.95;5.63;;;8.40;89.70;;;;;;6187591;23;20048;-68
2021/12/08 09:25:43;;;;;;;6.50;5.20;;;8.60;87.50;;;;;;6215231;23;20012;-73
2021/12/08 09:28:26;;;;;;;6.82;4.82;;;8.50;86.70;;;;;;6214529;23;20040;-71
2021/12/08 09:31:04;;;;;;;5.43;4.60;;;7.90;87.80;;;;;;6214720;23;20040;-77
2021/12/08 09:33:39;;;;;;;5.53;4.78;;;8.00;90.30;;;;;;6188581;23;20008;-72
2021/12/08 09:36:14;;;;;;;6.35;4.95;;;8.50;87.30;;;;;;6188271;23;20537;-71
2021/12/08 09:38:53;;;;;;;6.70;5.60;;;8.90;85.90;;;;;;6214709;23;20025;-71
2021/12/08 09:41:44;;;;;;;11.13;7.43;;;7.80;91.00;;;;;;6214740;23;20076;-76
2021/12/08 09:44:19;;;;;;;41.08;24.13;;;7.60;92.90;;;;;;6215187;23;20016;-75
2021/12/08 09:46:48;;;;;;;8.10;7.13;;;8.00;93.10;;;;;;6214134;23;20036;-67
2021/12/08 09:49:19;;;;;;;7.20;5.50;;;7.90;92.00;;;;;;6214674;23;20019;-74
2021/12/08 09:51:47;;;;;;;6.90;5.32;;;7.90;91.50;;;;;;6213990;23;20369;-66
2021/12/08 09:54:15;;;;;;;9.05;6.10;;;7.70;92.40;;;;;;6214468;23;20019;-67
2021/12/08 09:56:45;;;;;;;7.47;5.88;;;7.80;92.60;;;;;;6214231;23;20046;-68
2021/12/08 09:59:12;;;;;;;7.30;5.30;;;8.20;92.40;;;;;;6214199;23;20021;-69
2021/12/08 10:01:43;;;;;;;7.18;5.70;;;8.70;90.80;;;;;;6214174;23;20013;-69
2021/12/08 10:04:12;;;;;;;7.53;6.30;;;8.20;91.20;;;;;;6214107;23;20008;-66
2021/12/08 10:06:48;;;;;;;6.40;5.45;;;8.00;91.40;;;;;;6213797;23;20040;-68
2021/12/08 10:09:20;;;;;;;7.43;5.78;;;8.30;91.20;;;;;;6192142;23;20020;-69
2021/12/08 10:11:48;;;;;;;7.65;5.70;;;8.20;91.00;;;;;;6188138;23;20013;-69
2021/12/08 10:14:16;;;;;;;7.15;5.80;;;9.00;89.80;;;;;;6213793;23;20027;-69
2021/12/08 10:16:44;;;;;;;7.95;5.82;;;9.50;88.20;;;;;;6212832;23;20095;-70
2021/12/08 10:19:17;;;;;;;7.32;6.03;;;9.70;86.50;;;;;;6200572;23;20084;-71
2021/12/08 10:21:46;;;;;;;7.95;5.88;;;9.10;89.20;;;;;;6209277;23;20062;-69
2021/12/08 10:24:29;;;;;;;7.47;5.57;;;9.60;88.70;;;;;;6208664;23;20422;-69
2021/12/08 10:27:06;;;;;;;7.40;5.90;;;8.80;89.30;;;;;;6204305;23;20039;-67
2021/12/08 10:29:35;;;;;;;8.20;5.45;;;8.80;90.00;;;;;;6207583;23;20493;-66
2021/12/08 10:32:04;;;;;;;9.43;5.78;;;8.80;90.10;;;;;;6206020;23;20017;-69
2021/12/08 10:34:42;;;;;;;7.93;5.93;;;8.80;90.00;;;;;;6206119;23;20021;-69
2021/12/08 10:37:20;;;;;;;8.02;5.80;;;8.70;90.60;;;;;;6207403;23;20031;-72
2021/12/08 10:39:52;;;;;;;7.70;5.57;;;8.90;89.70;;;;;;6207529;23;20012;-68
2021/12/08 10:42:31;;;;;;;6.45;5.18;;;8.90;90.30;;;;;;6209064;23;20020;-70
2021/12/08 10:45:11;;;;;;;6.38;4.93;;;9.30;88.10;;;;;;6182710;23;20024;-76
2021/12/08 10:47:49;;;;;;;7.13;5.32;;;10.50;83.50;;;;;;6208965;23;20091;-70
2021/12/08 10:56:16;;;;;;;9.07;5.90;;;12.70;65.90;;;;;;6205581;23;20472;-69
2021/12/08 10:58:50;;;;;;;;;;;13.40;64.80;;;;;;6206980;23;20016;-67
2021/12/08 11:01:22;;;;;;;9.80;5.47;;;15.60;58.20;;;;;;6207532;23;19999;-69
2021/12/08 11:04:01;;;;;;;7.07;5.05;;;16.90;55.40;;;;;;6205972;23;20071;-68
2021/12/08 11:06:37;;;;;;;6.72;4.93;;;17.60;53.30;;;;;;6206220;23;20087;-73
2021/12/08 11:09:16;;;;;;;7.13;5.78;;;17.70;51.90;;;;;;6205877;23;20043;-71
2021/12/08 11:11:44;;;;;;;9.38;5.97;;;17.60;51.10;;;;;;6206316;23;20023;-68
2021/12/08 11:14:14;;;;;;;10.93;6.07;;;17.60;51.40;;;;;;6178826;23;20019;-69
2021/12/08 11:16:43;;;;;;;7.82;5.75;;;16.60;54.00;;;;;;6208942;23;20028;-68
2021/12/08 11:19:15;;;;;;;6.95;5.55;;;13.60;60.90;;;;;;6156855;23;20028;-67
2021/12/08 11:21:48;;;;;;;7.93;6.03;;;12.90;63.50;;;;;;6207737;23;20020;-75
2021/12/08 11:24:35;;;;;;;8.88;6.05;;;12.80;64.80;;;;;;6208474;23;20013;-69
2021/12/08 11:27:06;;;;;;;8.70;6.45;;;12.70;64.60;;;;;;6207481;23;20091;-67
2021/12/08 11:29:42;;;;;;;7.53;5.78;;;12.60;66.40;;;;;;6207095;23;20032;-69
2021/12/08 11:32:15;;;;;;;9.70;5.95;;;12.00;66.10;;;;;;6206994;23;20102;-74
2021/12/08 11:34:47;;;;;;;8.73;6.07;;;11.80;68.70;;;;;;6208593;23;20096;-78
2021/12/08 11:37:25;;;;;;;61.97;37.47;;;12.30;67.30;;;;;;6207703;23;20013;-69
2021/12/08 11:39:57;;;;;;;52.80;32.55;;;12.80;68.60;;;;;;6206370;23;20024;-69
2021/12/08 11:42:29;;;;;;;12.02;9.68;;;13.10;67.10;;;;;;6208876;23;20092;-69
2021/12/08 11:45:01;;;;;;;8.60;5.93;;;13.20;66.50;;;;;;6208917;23;20032;-68
2021/12/08 11:47:34;;;;;;;9.05;5.32;;;12.80;65.50;;;;;;6206059;23;20056;-65
2021/12/08 11:50:10;;;;;;;8.30;5.63;;;12.60;66.80;;;;;;6208817;23;20160;-67
2021/12/08 11:52:37;;;;;;;9.02;6.50;;;13.10;65.50;;;;;;6206039;23;20352;-68
2021/12/08 11:55:09;;;;;;;8.82;6.53;;;13.30;65.50;;;;;;6206804;23;20084;-71
2021/12/08 11:57:40;;;;;;;8.18;6.90;;;12.50;65.30;;;;;;6207220;23;20374;-72
2021/12/08 12:00:14;;;;;;;9.52;6.82;;;12.70;65.20;;;;;;6207576;23;20362;-71
2021/12/08 12:02:46;;;;;;;10.80;7.32;;;12.80;65.40;;;;;;6207147;23;20529;-70
2021/12/08 12:05:19;;;;;;;8.60;6.43;;;12.50;64.50;;;;;;6209198;23;20017;-69
2021/12/08 12:07:46;;;;;;;7.93;5.82;;;12.60;65.50;;;;;;6208493;23;20147;-69
2021/12/08 12:10:16;;;;;;;8.38;5.68;;;12.50;65.60;;;;;;6208828;23;20617;-67
2021/12/08 12:12:45;;;;;;;10.05;6.18;;;12.70;65.50;;;;;;6210682;23;20036;-65
2021/12/08 12:15:15;;;;;;;10.07;6.78;;;13.20;64.40;;;;;;6209040;23;20021;-67
2021/12/08 12:17:44;;;;;;;11.30;6.97;;;13.20;64.10;;;;;;6183971;23;20031;-69
2021/12/08 12:20:19;;;;;;;10.95;6.60;;;14.30;59.80;;;;;;6184065;23;20020;-68
2021/12/08 12:22:58;;;;;;;11.98;7.13;;;15.80;55.50;;;;;;6210602;23;20360;-68
2021/12/08 12:25:47;;;;;;;9.37;6.43;;;15.80;54.40;;;;;;6210738;23;20360;-72
2021/12/08 12:28:40;;;;;;;11.30;7.20;;;15.80;54.60;;;;;;6212333;23;20681;-70
2021/12/08 12:31:28;;;;;;;9.75;6.97;;;16.20;55.20;;;;;;6213184;23;20078;-67
2021/12/08 12:33:56;;;;;;;10.18;6.25;;;16.30;53.90;;;;;;6187444;23;20107;-69
2021/12/08 12:36:31;;;;;;;9.32;6.53;;;15.30;55.30;;;;;;6186622;23;20047;-67
2021/12/08 12:39:14;;;;;;;11.20;7.35;;;15.70;54.20;;;;;;6213920;23;20019;-68
2021/12/08 12:41:44;;;;;;;26.42;18.95;;;15.80;53.90;;;;;;6213545;23;20328;-70
2021/12/08 12:44:28;;;;;;;31.60;23.10;;;16.50;54.00;;;;;;6213837;23;20092;-71
2021/12/08 12:47:24;;;;;;;17.05;10.82;;;17.50;53.60;;;;;;6213739;23;20083;-78
2021/12/08 12:50:04;;;;;;;10.57;7.13;;;16.30;54.90;;;;;;6187425;23;20602;-71
2021/12/08 12:52:53;;;;;;;30.58;18.90;;;16.70;54.00;;;;;;6213921;23;20018;-71
2021/12/08 12:55:28;;;;;;;96.88;65.18;;;16.80;53.30;;;;;;6214461;23;20040;-75
2021/12/08 12:58:02;;;;;;;13.50;9.57;;;17.10;52.50;;;;;;6214099;23;20079;-74
2021/12/08 13:00:33;;;;;;;13.68;8.70;;;15.90;55.10;;;;;;6213427;23;20042;-76
2021/12/08 13:03:02;;;;;;;17.52;7.50;;;16.30;54.60;;;;;;6213674;23;20093;-78
2021/12/08 13:05:50;;;;;;;11.27;7.13;;;15.60;55.50;;;;;;6213697;23;20008;-72
2021/12/08 13:08:36;;;;;;;12.75;7.53;;;14.90;57.20;;;;;;6214109;23;20672;-76
2021/12/08 13:11:29;;;;;;;11.90;7.53;;;15.70;57.90;;;;;;6213317;23;20066;-78
2021/12/08 13:13:57;;;;;;;11.20;7.18;;;16.50;55.90;;;;;;6213729;23;20015;-74
2021/12/08 13:16:33;;;;;;;11.27;7.30;;;16.80;55.40;;;;;;6213387;23;20026;-72
2021/12/08 13:19:07;;;;;;;12.32;7.47;;;15.60;56.40;;;;;;6213984;23;20022;-69
2021/12/08 13:21:50;;;;;;;10.55;6.43;;;15.80;55.50;;;;;;6212921;23;20016;-73
2021/12/08 13:24:40;;;;;;;12.30;7.57;;;14.90;57.40;;;;;;6212227;23;20530;-70
2021/12/08 13:27:26;;;;;;;13.05;6.97;;;16.00;57.00;;;;;;6214018;23;20380;-69
2021/12/08 13:30:10;;;;;;;9.48;5.95;;;15.30;56.80;;;;;;6213876;23;20386;-68
2021/12/08 13:32:46;;;;;;;10.27;6.68;;;15.10;57.00;;;;;;6213272;23;20016;-72
2021/12/08 13:35:35;;;;;;;11.07;6.68;;;15.10;57.10;;;;;;6213936;23;20381;-75
2021/12/08 13:38:04;;;;;;;10.52;6.78;;;15.20;56.70;;;;;;6214410;23;20038;-79
2021/12/08 13:40:45;;;;;;;10.95;6.65;;;15.40;56.50;;;;;;6214571;23;20017;-76
2021/12/08 13:43:37;;;;;;;8.52;6.15;;;15.70;55.90;;;;;;6214049;23;20088;-76
2021/12/08 13:46:07;;;;;;;12.90;6.20;;;15.30;57.40;;;;;;6188119;23;20337;-76
2021/12/08 13:48:36;;;;;;;9.57;6.72;;;14.80;57.70;;;;;;6214212;23;20337;-70
2021/12/08 13:51:19;;;;;;;10.70;6.30;;;15.40;57.30;;;;;;6212798;23;20020;-70
2021/12/08 13:54:24;;;;;;;10.70;6.60;;;14.60;58.60;;;;;;6215006;23;20305;-78
2021/12/08 13:56:53;;;;;;;11.65;6.57;;;14.10;58.80;;;;;;6214427;23;20083;-75
2021/12/08 13:59:53;;;;;;;9.75;6.82;;;13.60;60.00;;;;;;6214427;23;20100;-70
2021/12/08 14:02:41;;;;;;;10.23;7.03;;;13.80;59.40;;;;;;6213496;23;20008;-74